Time;durP1;ratioP1;P1;durP2;ratioP2;P2;SDS_P1;SDS_P2;PMS_P1;PMS_P2;Temp;Humidity;BMP_temperature;BMP_pressure;BME280_temperature;BME280_humidity;BME280_pressure;Samples;Min_cycle;Max_cycle;Signal;HPM_P1;HPM_P2
2022/07/20 00:02:14;;;;;;;0.10;0.10;;;;;;;;;;6189085;23;20442;-93
2022/07/20 00:04:41;;;;;;;0.10;0.10;;;;;;;;;;6213225;23;20035;-93
2022/07/20 00:07:07;;;;;;;0.10;0.10;;;;;;;;;;6187860;23;20017;-91
2022/07/20 00:12:18;;;;;;;0.10;0.10;;;;;;;;;;6213017;23;20012;-92
2022/07/20 00:14:44;;;;;;;0.10;0.10;;;;;;;;;;6187864;23;20015;-92
2022/07/20 00:17:10;;;;;;;0.10;0.10;;;;;;;;;;6212900;23;20404;-93
2022/07/20 00:19:36;;;;;;;0.10;0.10;;;;;;;;;;6213174;23;20019;-92
2022/07/20 00:22:02;;;;;;;0.10;0.10;;;;;;;;;;6187957;23;20047;-93
2022/07/20 00:24:28;;;;;;;0.10;0.10;;;;;;;;;;6188240;23;20013;-91
2022/07/20 00:26:54;;;;;;;0.10;0.10;;;;;;;;;;6187753;23;20454;-91
2022/07/20 00:29:20;;;;;;;0.10;0.10;;;;;;;;;;6213561;23;20019;-91
2022/07/20 00:31:46;;;;;;;0.10;0.10;;;;;;;;;;6189867;23;20372;-92
2022/07/20 00:34:13;;;;;;;0.10;0.10;;;;;;;;;;6215041;23;20103;-91
2022/07/20 00:36:39;;;;;;;0.10;0.10;;;;;;;;;;6189709;23;20394;-92
2022/07/20 00:39:05;;;;;;;0.10;0.10;;;;;;;;;;6190194;23;20023;-93
2022/07/20 00:41:31;;;;;;;0.22;0.22;;;;;;;;;;6190146;23;20016;-93
2022/07/20 00:43:59;;;;;;;0.10;0.10;;;;;;;;;;6189866;23;20035;-92
2022/07/20 00:46:25;;;;;;;0.32;0.32;;;;;;;;;;6194371;23;20504;-93
2022/07/20 00:48:51;;;;;;;0.10;0.10;;;;;;;;;;6220241;23;20016;-92
2022/07/20 00:51:17;;;;;;;0.10;0.10;;;;;;;;;;6220312;23;20016;-93
2022/07/20 00:53:43;;;;;;;0.10;0.10;;;;;;;;;;6220196;23;20012;-93
2022/07/20 00:56:10;;;;;;;0.10;0.10;;;;;;;;;;6221107;23;20036;-96
2022/07/20 00:58:37;;;;;;;0.10;0.10;;;;;;;;;;6221920;23;20061;-95
2022/07/20 01:01:03;;;;;;;0.10;0.10;;;;;;;;;;6222866;23;20035;-95
2022/07/20 01:03:30;;;;;;;0.10;0.10;;;;;;;;;;6223266;23;20020;-95
2022/07/20 01:05:56;;;;;;;0.10;0.10;;;;;;;;;;6220528;23;20067;-94
2022/07/20 01:08:22;;;;;;;0.10;0.10;;;;;;;;;;6220407;23;20027;-94
2022/07/20 01:10:50;;;;;;;0.10;0.10;;;;;;;;;;6220369;23;20012;-95
2022/07/20 01:13:16;;;;;;;0.10;0.10;;;;;;;;;;6220215;23;20012;-94
2022/07/20 01:15:42;;;;;;;0.10;0.10;;;;;;;;;;6195177;23;20008;-93
2022/07/20 01:18:08;;;;;;;0.10;0.10;;;;;;;;;;6195045;22;20016;-94
2022/07/20 01:20:34;;;;;;;0.10;0.10;;;;;;;;;;6220481;23;20016;-94
2022/07/20 01:23:00;;;;;;;0.10;0.10;;;;;;;;;;6195125;23;20397;-94
2022/07/20 01:25:26;;;;;;;0.10;0.10;;;;;;;;;;6195086;23;20019;-93
2022/07/20 01:27:55;;;;;;;0.10;0.10;;;;;;;;;;6219898;23;20460;-93
2022/07/20 01:30:21;;;;;;;0.10;0.10;;;;;;;;;;6219627;23;20008;-94
2022/07/20 01:32:47;;;;;;;0.10;0.10;;;;;;;;;;6194405;23;20460;-93
2022/07/20 01:35:15;;;;;;;0.10;0.10;;;;;;;;;;6219395;23;20019;-93
2022/07/20 01:37:41;;;;;;;0.10;0.10;;;;;;;;;;6194201;23;20434;-92
2022/07/20 01:40:08;;;;;;;0.10;0.10;;;;;;;;;;6219171;23;20023;-93
2022/07/20 01:42:34;;;;;;;0.10;0.10;;;;;;;;;;6219849;23;20023;-92
2022/07/20 01:45:00;;;;;;;0.10;0.10;;;;;;;;;;6219159;22;20012;-94
2022/07/20 01:47:26;;;;;;;0.10;0.10;;;;;;;;;;6194732;23;20072;-92
2022/07/20 01:49:52;;;;;;;0.10;0.10;;;;;;;;;;6219284;23;20461;-93
2022/07/20 01:52:20;;;;;;;4.20;0.52;;;;;;;;;;6194508;23;20012;-93
2022/07/20 01:54:46;;;;;;;0.10;0.10;;;;;;;;;;6194356;23;20012;-93
2022/07/20 01:57:12;;;;;;;0.10;0.10;;;;;;;;;;6194223;23;20019;-93
2022/07/20 01:59:38;;;;;;;0.10;0.10;;;;;;;;;;6194398;23;20037;-95
2022/07/20 02:02:06;;;;;;;0.10;0.10;;;;;;;;;;6220849;23;20051;-96
2022/07/20 02:04:32;;;;;;;0.10;0.10;;;;;;;;;;6195531;23;20048;-95
2022/07/20 02:06:58;;;;;;;0.10;0.10;;;;;;;;;;6195265;23;20439;-95
2022/07/20 02:09:24;;;;;;;0.10;0.10;;;;;;;;;;6194897;23;20070;-94
2022/07/20 02:11:50;;;;;;;0.10;0.10;;;;;;;;;;6194950;23;20086;-94
2022/07/20 02:14:16;;;;;;;0.10;0.10;;;;;;;;;;6195234;23;20341;-93
2022/07/20 02:16:51;;;;;;;0.10;0.10;;;;;;;;;;6200004;23;20012;-94
2022/07/20 02:20:24;;;;;;;;;;;;;;;;;;;;;
2022/07/20 02:23:43;;;;;;;0.10;0.10;;;;;;;;;;6063443;23;20079;-94
2022/07/20 02:27:33;;;;;;;0.10;0.10;;;;;;;;;;6076067;23;20017;-96
2022/07/20 02:30:16;;;;;;;0.10;0.10;;;;;;;;;;6116691;23;20014;-96
2022/07/20 02:32:45;;;;;;;0.10;0.10;;;;;;;;;;6110333;23;20147;-96
2022/07/20 02:35:20;;;;;;;;;;;;;;;;;;6091213;23;20069;-94
2022/07/20 02:37:46;;;;;;;0.10;0.10;;;;;;;;;;6082612;23;19912;-95
2022/07/20 02:40:16;;;;;;;0.10;0.10;;;;;;;;;;6144935;23;20008;-94
2022/07/20 02:42:42;;;;;;;0.10;0.10;;;;;;;;;;6193556;23;20104;-92
2022/07/20 02:45:08;;;;;;;0.10;0.10;;;;;;;;;;6193608;23;20083;-92
2022/07/20 02:47:46;;;;;;;0.10;0.10;;;;;;;;;;6218903;23;20074;-93
2022/07/20 02:50:12;;;;;;;0.10;0.10;;;;;;;;;;6193758;23;20016;-92
2022/07/20 02:52:39;;;;;;;0.10;0.10;;;;;;;;;;6193474;23;20016;-91
2022/07/20 02:55:05;;;;;;;0.10;0.10;;;;;;;;;;6193672;23;20054;-92
2022/07/20 02:57:31;;;;;;;0.10;0.10;;;;;;;;;;6219009;23;20023;-91
2022/07/20 02:59:57;;;;;;;0.38;0.30;;;;;;;;;;6194154;23;20015;-92
2022/07/20 03:02:23;;;;;;;0.10;0.10;;;;;;;;;;6194741;23;20043;-91
2022/07/20 03:04:49;;;;;;;0.10;0.10;;;;;;;;;;6193497;23;20008;-91
2022/07/20 03:07:18;;;;;;;0.10;0.10;;;;;;;;;;6193330;23;20337;-92
2022/07/20 03:09:44;;;;;;;0.10;0.10;;;;;;;;;;6193607;23;20012;-94
2022/07/20 03:12:12;;;;;;;0.10;0.10;;;;;;;;;;6194090;23;20086;-94
2022/07/20 03:14:38;;;;;;;0.10;0.10;;;;;;;;;;6219324;23;20012;-93
2022/07/20 03:17:04;;;;;;;0.10;0.10;;;;;;;;;;6193998;23;20012;-94
2022/07/20 03:19:30;;;;;;;0.10;0.10;;;;;;;;;;6194034;23;20016;-93
2022/07/20 03:21:56;;;;;;;0.10;0.10;;;;;;;;;;6194742;23;20008;-95
2022/07/20 03:24:43;;;;;;;0.10;0.10;;;;;;;;;;6197055;23;20016;-95
2022/07/20 03:27:09;;;;;;;0.10;0.10;;;;;;;;;;6195546;23;20016;-93
2022/07/20 03:29:35;;;;;;;0.10;0.10;;;;;;;;;;6194893;23;20090;-94
2022/07/20 03:32:03;;;;;;;0.10;0.10;;;;;;;;;;6194627;23;20051;-96
2022/07/20 03:34:58;;;;;;;0.10;0.10;;;;;;;;;;6225101;23;20091;-96
2022/07/20 03:37:29;;;;;;;0.10;0.10;;;;;;;;;;6205757;23;20268;-96
2022/07/20 03:40:05;;;;;;;0.10;0.10;;;;;;;;;;6214654;23;20012;-96
2022/07/20 03:42:32;;;;;;;0.10;0.10;;;;;;;;;;6203558;23;20016;-96
2022/07/20 03:44:58;;;;;;;0.10;0.10;;;;;;;;;;6209205;23;20016;-96
2022/07/20 03:47:24;;;;;;;0.10;0.10;;;;;;;;;;6200153;23;20020;-94
2022/07/20 03:49:52;;;;;;;0.10;0.10;;;;;;;;;;6220940;23;20015;-94
2022/07/20 03:52:18;;;;;;;0.10;0.10;;;;;;;;;;6200133;23;20065;-93
2022/07/20 03:54:44;;;;;;;0.10;0.10;;;;;;;;;;6211145;23;20012;-93
2022/07/20 03:57:10;;;;;;;0.10;0.10;;;;;;;;;;6197747;23;20019;-92
2022/07/20 03:59:36;;;;;;;0.10;0.10;;;;;;;;;;6221699;23;20441;-93
2022/07/20 04:02:02;;;;;;;0.10;0.10;;;;;;;;;;6196199;23;20457;-92
2022/07/20 04:04:28;;;;;;;0.10;0.10;;;;;;;;;;6223347;23;20020;-93
2022/07/20 04:09:46;;;;;;;0.10;0.10;;;;;;;;;;6238678;22;20078;-95
2022/07/20 04:12:18;;;;;;;0.10;0.10;;;;;;;;;;6207432;22;20067;-94
2022/07/20 04:14:46;;;;;;;0.10;0.10;;;;;;;;;;6207859;22;20022;-96
2022/07/20 04:17:12;;;;;;;0.15;0.13;;;;;;;;;;6207390;22;20020;-95
2022/07/20 04:19:38;;;;;;;0.10;0.10;;;;;;;;;;6201954;23;20047;-94
2022/07/20 04:22:04;;;;;;;0.10;0.10;;;;;;;;;;6197878;23;20079;-94
2022/07/20 04:24:32;;;;;;;0.10;0.10;;;;;;;;;;6221483;23;20019;-94
2022/07/20 04:26:58;;;;;;;0.10;0.10;;;;;;;;;;6221439;23;20138;-93
2022/07/20 04:29:24;;;;;;;0.10;0.10;;;;;;;;;;6196287;23;20048;-93
2022/07/20 04:31:50;;;;;;;0.10;0.10;;;;;;;;;;6196528;23;20070;-91
2022/07/20 04:34:16;;;;;;;0.10;0.10;;;;;;;;;;6196207;23;20426;-92
2022/07/20 04:36:42;;;;;;;0.10;0.10;;;;;;;;;;6196480;23;20070;-93
2022/07/20 04:39:08;;;;;;;0.10;0.10;;;;;;;;;;6196515;23;20020;-93
2022/07/20 04:41:34;;;;;;;0.10;0.10;;;;;;;;;;6196342;23;20023;-92
2022/07/20 04:44:00;;;;;;;0.10;0.10;;;;;;;;;;6196777;23;20017;-93
2022/07/20 04:46:28;;;;;;;0.10;0.10;;;;;;;;;;6196423;23;20019;-93
2022/07/20 04:48:54;;;;;;;0.10;0.10;;;;;;;;;;6196240;23;20015;-92
2022/07/20 04:51:20;;;;;;;0.10;0.10;;;;;;;;;;6196490;23;20437;-93
2022/07/20 04:53:46;;;;;;;0.10;0.10;;;;;;;;;;6196530;23;20012;-92
2022/07/20 04:56:13;;;;;;;0.10;0.10;;;;;;;;;;6196410;23;20012;-93
2022/07/20 04:58:39;;;;;;;0.10;0.10;;;;;;;;;;6196930;23;20087;-93
2022/07/20 05:01:05;;;;;;;0.30;0.30;;;;;;;;;;6196903;23;20047;-93
2022/07/20 05:03:31;;;;;;;0.10;0.10;;;;;;;;;;6196287;23;20063;-93
2022/07/20 05:05:57;;;;;;;0.10;0.10;;;;;;;;;;6196482;23;20015;-95
2022/07/20 05:08:23;;;;;;;0.10;0.10;;;;;;;;;;6196393;23;20074;-96
2022/07/20 05:10:49;;;;;;;0.10;0.10;;;;;;;;;;6196326;23;20016;-93
2022/07/20 05:13:15;;;;;;;0.10;0.10;;;;;;;;;;6196825;23;20070;-94
2022/07/20 05:15:41;;;;;;;0.10;0.10;;;;;;;;;;6195270;23;20434;-94
2022/07/20 05:18:07;;;;;;;0.10;0.10;;;;;;;;;;6220058;22;20019;-93
2022/07/20 05:20:33;;;;;;;0.10;0.10;;;;;;;;;;6197112;23;20468;-91
2022/07/20 05:22:59;;;;;;;0.10;0.10;;;;;;;;;;6220568;23;20008;-92
2022/07/20 05:25:25;;;;;;;0.10;0.10;;;;;;;;;;6220024;23;20027;-92
2022/07/20 05:27:51;;;;;;;0.10;0.10;;;;;;;;;;6219997;23;20012;-95
2022/07/20 05:30:17;;;;;;;0.10;0.10;;;;;;;;;;6195086;23;20122;-94
2022/07/20 05:32:44;;;;;;;0.10;0.10;;;;;;;;;;6194758;23;20118;-94
2022/07/20 05:35:23;;;;;;;0.20;0.20;;;;;;;;;;6198080;23;20015;-96
2022/07/20 05:37:52;;;;;;;0.10;0.10;;;;;;;;;;6195637;23;20020;-95
2022/07/20 05:40:18;;;;;;;0.10;0.10;;;;;;;;;;6195107;23;20011;-95
2022/07/20 05:42:44;;;;;;;0.17;0.17;;;;;;;;;;6195050;23;20016;-95
2022/07/20 05:45:10;;;;;;;0.20;0.20;;;;;;;;;;6195267;23;20460;-95
2022/07/20 05:47:36;;;;;;;0.10;0.10;;;;;;;;;;6195013;23;20016;-95
2022/07/20 05:50:07;;;;;;;0.10;0.10;;;;;;;;;;6195084;23;20053;-96
2022/07/20 05:52:36;;;;;;;0.10;0.10;;;;;;;;;;6220804;23;20032;-95
2022/07/20 05:55:03;;;;;;;0.10;0.10;;;;;;;;;;6194187;23;20019;-94
2022/07/20 05:57:29;;;;;;;0.10;0.10;;;;;;;;;;6194783;23;20333;-94
2022/07/20 05:59:58;;;;;;;0.17;0.17;;;;;;;;;;6194579;23;20048;-94
2022/07/20 06:02:24;;;;;;;0.10;0.10;;;;;;;;;;6194467;23;20016;-94
2022/07/20 06:04:50;;;;;;;0.32;0.20;;;;;;;;;;6194744;23;20016;-94
2022/07/20 06:07:18;;;;;;;0.10;0.10;;;;;;;;;;6195093;23;20020;-94
2022/07/20 06:09:46;;;;;;;0.10;0.10;;;;;;;;;;6178065;23;20023;-96
2022/07/20 06:12:15;;;;;;;0.20;0.20;;;;;;;;;;6172792;23;20018;-94
2022/07/20 06:14:44;;;;;;;0.10;0.10;;;;;;;;;;6226587;22;20087;-95
2022/07/20 06:17:11;;;;;;;0.20;0.20;;;;;;;;;;6172651;23;20016;-95
2022/07/20 06:19:37;;;;;;;0.10;0.10;;;;;;;;;;6172535;23;20031;-95
2022/07/20 06:22:09;;;;;;;0.10;0.10;;;;;;;;;;6145588;23;20012;-96
2022/07/20 06:25:04;;;;;;;0.10;0.10;;;;;;;;;;6173881;23;20403;-96
2022/07/20 06:30:06;;;;;;;0.20;0.20;;;;;;;;;;6257740;22;19950;-95
2022/07/20 06:35:25;;;;;;;0.20;0.20;;;;;;;;;;6272253;22;20027;-96
2022/07/20 06:37:51;;;;;;;0.10;0.10;;;;;;;;;;6200124;22;20047;-92
2022/07/20 06:40:17;;;;;;;0.20;0.20;;;;;;;;;;6193836;23;20016;-95
2022/07/20 06:42:43;;;;;;;0.10;0.10;;;;;;;;;;6170732;23;20340;-96
2022/07/20 06:45:13;;;;;;;0.20;0.20;;;;;;;;;;6171338;23;20014;-96
2022/07/20 06:47:42;;;;;;;0.20;0.20;;;;;;;;;;6218593;23;20019;-95
2022/07/20 06:50:20;;;;;;;0.20;0.20;;;;;;;;;;6222257;23;20149;-96
2022/07/20 06:52:46;;;;;;;0.20;0.20;;;;;;;;;;6222728;23;20019;-96
2022/07/20 06:55:22;;;;;;;0.20;0.20;;;;;;;;;;6179037;23;20336;-95
2022/07/20 06:57:57;;;;;;;0.20;0.20;;;;;;;;;;6223714;23;20019;-96
2022/07/20 07:00:24;;;;;;;0.20;0.20;;;;;;;;;;6176920;23;20012;-94
2022/07/20 07:02:50;;;;;;;0.20;0.20;;;;;;;;;;6176021;23;20054;-94
2022/07/20 07:05:16;;;;;;;0.20;0.20;;;;;;;;;;6171257;23;20024;-93
2022/07/20 07:07:42;;;;;;;0.20;0.20;;;;;;;;;;6169984;23;20016;-93
2022/07/20 07:10:13;;;;;;;0.20;0.20;;;;;;;;;;6168784;23;20016;-96
2022/07/20 07:12:42;;;;;;;0.25;0.25;;;;;;;;;;6169062;23;20016;-93
2022/07/20 07:15:08;;;;;;;0.20;0.20;;;;;;;;;;6194184;23;20012;-93
2022/07/20 07:17:36;;;;;;;0.20;0.20;;;;;;;;;;6169455;23;20008;-94
2022/07/20 07:20:02;;;;;;;0.20;0.20;;;;;;;;;;6193598;23;20012;-93
2022/07/20 07:22:30;;;;;;;0.30;0.30;;;;;;;;;;6193606;23;20016;-95
2022/07/20 07:24:56;;;;;;;0.20;0.20;;;;;;;;;;6169236;23;20337;-92
2022/07/20 07:27:22;;;;;;;0.30;0.30;;;;;;;;;;6192773;23;20012;-91
2022/07/20 07:29:48;;;;;;;0.20;0.20;;;;;;;;;;6167982;23;20016;-92
2022/07/20 07:32:14;;;;;;;0.20;0.20;;;;;;;;;;6168087;23;20087;-93
2022/07/20 07:34:40;;;;;;;0.20;0.20;;;;;;;;;;6167668;23;20027;-92
2022/07/20 07:37:08;;;;;;;0.20;0.20;;;;;;;;;;6192748;23;20012;-93
2022/07/20 07:39:34;;;;;;;0.30;0.30;;;;;;;;;;6168049;23;20496;-92
2022/07/20 07:42:00;;;;;;;4.68;0.47;;;;;;;;;;6168113;23;20094;-91
2022/07/20 07:44:26;;;;;;;0.30;0.30;;;;;;;;;;6167983;23;20102;-93
2022/07/20 07:46:52;;;;;;;0.20;0.20;;;;;;;;;;6169949;23;20016;-95
2022/07/20 07:49:21;;;;;;;0.30;0.30;;;;;;;;;;6169010;23;20442;-94
2022/07/20 07:51:47;;;;;;;0.20;0.20;;;;;;;;;;6169516;23;20023;-92
2022/07/20 07:54:13;;;;;;;0.30;0.30;;;;;;;;;;6168227;23;20012;-91
2022/07/20 07:56:41;;;;;;;0.30;0.30;;;;;;;;;;6168096;23;20061;-93
2022/07/20 07:59:07;;;;;;;0.22;0.22;;;;;;;;;;6168130;23;20143;-93
2022/07/20 08:01:34;;;;;;;0.40;0.40;;;;;;;;;;6168400;23;20044;-92
2022/07/20 08:04:00;;;;;;;0.30;0.30;;;;;;;;;;6168669;23;20415;-92
2022/07/20 08:06:27;;;;;;;0.30;0.30;;;;;;;;;;6167379;23;20052;-94
2022/07/20 08:08:53;;;;;;;0.30;0.30;;;;;;;;;;6167774;23;20024;-93
2022/07/20 08:11:19;;;;;;;0.60;0.60;;;;;;;;;;6192491;23;20012;-92
2022/07/20 08:13:45;;;;;;;0.30;0.30;;;;;;;;;;6168156;23;20016;-93
2022/07/20 08:16:13;;;;;;;0.30;0.30;;;;;;;;;;6167817;23;20016;-91
2022/07/20 08:18:39;;;;;;;0.30;0.30;;;;;;;;;;6167496;23;20019;-92
2022/07/20 08:21:05;;;;;;;0.40;0.40;;;;;;;;;;6192599;23;20008;-92
2022/07/20 08:23:31;;;;;;;0.30;0.30;;;;;;;;;;6217587;23;20043;-91
2022/07/20 08:25:57;;;;;;;0.30;0.30;;;;;;;;;;6168026;23;20082;-92
2022/07/20 08:28:24;;;;;;;0.28;0.28;;;;;;;;;;6167743;23;20012;-92
2022/07/20 08:30:50;;;;;;;0.40;0.40;;;;;;;;;;6167598;23;20472;-93
2022/07/20 08:33:16;;;;;;;0.30;0.30;;;;;;;;;;6169463;23;20012;-95
2022/07/20 08:35:42;;;;;;;0.30;0.30;;;;;;;;;;6170551;23;20019;-92
2022/07/20 08:38:08;;;;;;;0.30;0.30;;;;;;;;;;6167742;22;20012;-92
2022/07/20 08:40:34;;;;;;;0.30;0.30;;;;;;;;;;6192612;23;20091;-91
2022/07/20 08:43:00;;;;;;;0.25;0.25;;;;;;;;;;6167799;23;20051;-91
2022/07/20 08:45:27;;;;;;;0.20;0.20;;;;;;;;;;6167648;23;20016;-91
2022/07/20 08:47:53;;;;;;;0.47;0.47;;;;;;;;;;6167400;23;20087;-92
2022/07/20 08:50:23;;;;;;;0.30;0.30;;;;;;;;;;6217445;23;20318;-92
2022/07/20 08:52:49;;;;;;;0.35;0.35;;;;;;;;;;6169525;23;20066;-92
2022/07/20 08:55:16;;;;;;;0.20;0.20;;;;;;;;;;6169418;23;20008;-91
2022/07/20 08:57:42;;;;;;;0.30;0.30;;;;;;;;;;6219232;23;20012;-90
2022/07/20 09:00:10;;;;;;;0.40;0.40;;;;;;;;;;6219716;23;20092;-91
2022/07/20 09:02:52;;;;;;;0.30;0.30;;;;;;;;;;6194229;23;20012;-90
2022/07/20 09:05:20;;;;;;;0.30;0.30;;;;;;;;;;6169484;23;20051;-92
2022/07/20 09:07:56;;;;;;;0.30;0.30;;;;;;;;;;6171837;23;20023;-96
2022/07/20 09:10:50;;;;;;;0.30;0.30;;;;;;;;;;6222008;23;20070;-96
2022/07/20 09:13:47;;;;;;;0.30;0.30;;;;;;;;;;6224558;23;20329;-96
2022/07/20 09:19:27;;;;;;;0.40;0.40;;;;;;;;;;6194327;23;20062;-95
2022/07/20 09:21:54;;;;;;;0.30;0.30;;;;;;;;;;6197166;23;20453;-94
2022/07/20 09:24:28;;;;;;;0.77;0.77;;;;;;;;;;6219683;23;20012;-95
2022/07/20 09:27:09;;;;;;;0.30;0.30;;;;;;;;;;6220054;23;20063;-95
2022/07/20 09:30:14;;;;;;;0.20;0.20;;;;;;;;;;6263596;22;20566;-95
2022/07/20 09:32:58;;;;;;;0.20;0.20;;;;;;;;;;6248264;22;20384;-95
2022/07/20 09:35:25;;;;;;;0.40;0.40;;;;;;;;;;6224412;22;20011;-91
2022/07/20 09:37:51;;;;;;;0.30;0.30;;;;;;;;;;6224838;22;20024;-92
2022/07/20 09:40:17;;;;;;;0.30;0.30;;;;;;;;;;6224169;22;20057;-93
2022/07/20 09:42:45;;;;;;;0.52;0.50;;;;;;;;;;6199059;22;20412;-92
2022/07/20 09:45:21;;;;;;;0.30;0.30;;;;;;;;;;6224783;22;20042;-92
2022/07/20 09:48:07;;;;;;;0.70;0.70;;;;;;;;;;6218897;23;20008;-92
2022/07/20 09:50:34;;;;;;;0.47;0.47;;;;;;;;;;6219656;22;20369;-94
2022/07/20 09:53:06;;;;;;;0.32;0.32;;;;;;;;;;6226472;22;20008;-92
2022/07/20 09:55:32;;;;;;;0.40;0.40;;;;;;;;;;6200251;22;20491;-93
2022/07/20 09:58:06;;;;;;;0.30;0.30;;;;;;;;;;6199320;22;20011;-91
2022/07/20 10:00:36;;;;;;;0.35;0.35;;;;;;;;;;6250493;22;20015;-93
2022/07/20 10:03:02;;;;;;;0.60;0.60;;;;;;;;;;6218468;23;20069;-93
2022/07/20 10:05:38;;;;;;;0.65;0.65;;;;;;;;;;6193689;22;20075;-95
2022/07/20 10:08:05;;;;;;;0.30;0.30;;;;;;;;;;6199515;22;20069;-93
2022/07/20 10:10:37;;;;;;;0.45;0.45;;;;;;;;;;6200095;22;20011;-96
2022/07/20 10:13:15;;;;;;;0.40;0.40;;;;;;;;;;6259151;22;20018;-96
2022/07/20 10:16:07;;;;;;;0.40;0.40;;;;;;;;;;6221513;23;20050;-96
2022/07/20 10:18:37;;;;;;;0.40;0.40;;;;;;;;;;6232287;22;20046;-96
2022/07/20 10:21:21;;;;;;;0.43;0.40;;;;;;;;;;6236987;22;20015;-96
2022/07/20 10:24:12;;;;;;;0.50;0.50;;;;;;;;;;6245497;22;20015;-94
2022/07/20 10:27:36;;;;;;;;;;;;;;;;;;;;;
2022/07/20 10:30:16;;;;;;;0.60;0.60;;;;;;;;;;6124840;23;20017;-93
2022/07/20 10:32:56;;;;;;;0.20;0.20;;;;;;;;;;6079993;23;20080;-95
2022/07/20 10:35:29;;;;;;;0.40;0.40;;;;;;;;;;6182555;22;20015;-94
2022/07/20 10:37:58;;;;;;;0.30;0.30;;;;;;;;;;6200321;22;20038;-94
2022/07/20 10:40:25;;;;;;;0.47;0.47;;;;;;;;;;6224243;22;20015;-96
2022/07/20 10:42:56;;;;;;;0.43;0.43;;;;;;;;;;6219910;23;20020;-93
2022/07/20 10:45:31;;;;;;;;;;;;;;;;;;6222186;22;20094;-95
2022/07/20 10:48:01;;;;;;;0.30;0.30;;;;;;;;;;6225575;22;19911;-92
2022/07/20 10:50:27;;;;;;;0.45;0.45;;;;;;;;;;6198500;22;20012;-93
2022/07/20 10:52:58;;;;;;;0.20;0.20;;;;;;;;;;6249901;22;20011;-95
2022/07/20 10:55:36;;;;;;;0.30;0.30;;;;;;;;;;6200490;22;20502;-92
2022/07/20 10:58:23;;;;;;;0.30;0.30;;;;;;;;;;6250566;22;20511;-92
2022/07/20 11:00:52;;;;;;;0.50;0.50;;;;;;;;;;6224679;22;20051;-93
2022/07/20 11:03:27;;;;;;;0.30;0.30;;;;;;;;;;6200311;22;20050;-93
2022/07/20 11:06:10;;;;;;;0.35;0.35;;;;;;;;;;6218371;23;20016;-91
2022/07/20 11:08:36;;;;;;;0.38;0.38;;;;;;;;;;6221449;22;20012;-93
2022/07/20 11:11:02;;;;;;;0.45;0.45;;;;;;;;;;6198551;22;20445;-93
2022/07/20 11:13:28;;;;;;;0.30;0.30;;;;;;;;;;6197895;22;20038;-91
2022/07/20 11:15:57;;;;;;;0.30;0.30;;;;;;;;;;6198455;22;20014;-93
2022/07/20 11:21:00;;;;;;;0.40;0.40;;;;;;;;;;6265674;22;20455;-90
2022/07/20 11:23:27;;;;;;;0.20;0.20;;;;;;;;;;6223630;22;20460;-91
2022/07/20 11:25:56;;;;;;;0.30;0.30;;;;;;;;;;6223590;22;20014;-91
2022/07/20 11:28:26;;;;;;;0.20;0.20;;;;;;;;;;6217132;23;20035;-91
2022/07/20 11:30:52;;;;;;;0.20;0.20;;;;;;;;;;6168932;23;20016;-92
2022/07/20 11:33:38;;;;;;;0.20;0.20;;;;;;;;;;6167982;23;20008;-92
2022/07/20 11:36:32;;;;;;;0.20;0.20;;;;;;;;;;6168223;23;20453;-93
2022/07/20 11:39:39;;;;;;;0.20;0.20;;;;;;;;;;6218462;23;20054;-95
2022/07/20 11:42:49;;;;;;;0.20;0.20;;;;;;;;;;6188895;23;20389;-95
2022/07/20 11:45:15;;;;;;;0.50;0.50;;;;;;;;;;6192547;23;20774;-93
2022/07/20 11:47:41;;;;;;;0.20;0.20;;;;;;;;;;6168442;23;20043;-92
2022/07/20 11:50:13;;;;;;;0.20;0.20;;;;;;;;;;6168339;23;20463;-93
2022/07/20 11:52:40;;;;;;;0.35;0.35;;;;;;;;;;6218113;23;20008;-92
2022/07/20 11:55:26;;;;;;;0.20;0.20;;;;;;;;;;6167974;23;20015;-93
2022/07/20 11:57:55;;;;;;;0.20;0.20;;;;;;;;;;6217820;23;20008;-94
2022/07/20 12:00:26;;;;;;;0.20;0.20;;;;;;;;;;6168057;23;20492;-91
2022/07/20 12:02:55;;;;;;;0.20;0.20;;;;;;;;;;6168310;23;20024;-93
2022/07/20 12:05:22;;;;;;;0.35;0.35;;;;;;;;;;6169077;23;20243;-94
2022/07/20 12:08:07;;;;;;;0.20;0.20;;;;;;;;;;6192756;23;20134;-93
2022/07/20 12:10:34;;;;;;;0.20;0.20;;;;;;;;;;6193260;23;20016;-93
2022/07/20 12:13:04;;;;;;;0.20;0.20;;;;;;;;;;6168090;23;20012;-90
2022/07/20 12:15:31;;;;;;;0.30;0.30;;;;;;;;;;6168045;23;20012;-92
2022/07/20 12:18:00;;;;;;;0.32;0.30;;;;;;;;;;6243123;22;20008;-90
2022/07/20 12:20:26;;;;;;;0.20;0.20;;;;;;;;;;6168328;23;20082;-91
2022/07/20 12:22:58;;;;;;;0.20;0.20;;;;;;;;;;6167917;23;20027;-92
2022/07/20 12:25:43;;;;;;;0.20;0.20;;;;;;;;;;6169009;23;20012;-93
2022/07/20 12:28:14;;;;;;;0.35;0.35;;;;;;;;;;6170675;22;20015;-93
2022/07/20 12:30:41;;;;;;;0.20;0.20;;;;;;;;;;6220110;23;20725;-93
2022/07/20 12:33:23;;;;;;;0.20;0.20;;;;;;;;;;6172120;23;20014;-92
2022/07/20 12:35:49;;;;;;;;;;;;;;;;;;6222772;23;20015;-93
2022/07/20 12:38:15;;;;;;;0.38;0.38;;;;;;;;;;6221117;22;19919;-91
2022/07/20 12:40:42;;;;;;;0.20;0.20;;;;;;;;;;6172025;23;20012;-93
2022/07/20 12:43:27;;;;;;;0.20;0.20;;;;;;;;;;6178328;23;20031;-93
2022/07/20 12:45:55;;;;;;;0.20;0.20;;;;;;;;;;6220188;23;20022;-93
2022/07/20 12:50:57;;;;;;;0.30;0.30;;;;;;;;;;6262774;22;20047;-90
2022/07/20 12:53:26;;;;;;;0.20;0.20;;;;;;;;;;6224632;22;20023;-92
2022/07/20 12:55:54;;;;;;;0.15;0.15;;;;;;;;;;6225224;22;20016;-93
2022/07/20 12:58:22;;;;;;;0.20;0.20;;;;;;;;;;6219680;23;20023;-93
2022/07/20 13:00:50;;;;;;;0.20;0.20;;;;;;;;;;6221552;23;20016;-95
2022/07/20 13:06:53;;;;;;;0.20;0.20;;;;;;;;;;6251655;23;20043;-93
2022/07/20 13:09:39;;;;;;;0.20;0.20;;;;;;;;;;6224919;23;20012;-96
2022/07/20 13:12:05;;;;;;;0.20;0.20;;;;;;;;;;6200246;23;20050;-93
2022/07/20 13:14:32;;;;;;;0.20;0.20;;;;;;;;;;6196032;23;20066;-93
2022/07/20 13:17:11;;;;;;;0.13;0.13;;;;;;;;;;6222981;23;20035;-94
2022/07/20 13:19:46;;;;;;;0.30;0.30;;;;;;;;;;6220291;23;20055;-96
2022/07/20 13:22:14;;;;;;;0.30;0.30;;;;;;;;;;6198526;23;20067;-94
2022/07/20 13:24:42;;;;;;;0.20;0.20;;;;;;;;;;6198428;23;20039;-96
2022/07/20 13:27:14;;;;;;;0.20;0.20;;;;;;;;;;6196347;23;20425;-94
2022/07/20 13:29:40;;;;;;;0.45;0.45;;;;;;;;;;6194112;23;20009;-93
2022/07/20 13:32:06;;;;;;;0.20;0.20;;;;;;;;;;6194387;23;20453;-94
2022/07/20 13:34:32;;;;;;;0.17;0.17;;;;;;;;;;6194458;23;20067;-93
2022/07/20 13:36:58;;;;;;;0.20;0.20;;;;;;;;;;6194246;23;20392;-93
2022/07/20 13:39:24;;;;;;;0.20;0.20;;;;;;;;;;6194941;23;20012;-91
2022/07/20 13:41:50;;;;;;;0.20;0.20;;;;;;;;;;6194211;23;20012;-91
2022/07/20 13:44:17;;;;;;;0.20;0.20;;;;;;;;;;6194218;23;20524;-93
2022/07/20 13:46:44;;;;;;;0.20;0.20;;;;;;;;;;6219238;23;20020;-93
2022/07/20 13:49:10;;;;;;;0.30;0.20;;;;;;;;;;6194181;23;20432;-93
2022/07/20 13:51:36;;;;;;;0.20;0.20;;;;;;;;;;6194473;23;20095;-94
2022/07/20 13:54:02;;;;;;;0.57;0.20;;;;;;;;;;6194522;23;20050;-96
2022/07/20 13:56:31;;;;;;;0.20;0.20;;;;;;;;;;6194408;23;20016;-94
2022/07/20 13:58:57;;;;;;;0.20;0.20;;;;;;;;;;6194765;23;20095;-96
2022/07/20 14:01:23;;;;;;;0.30;0.30;;;;;;;;;;6219656;23;20077;-94
2022/07/20 14:03:51;;;;;;;0.20;0.20;;;;;;;;;;6194283;23;20442;-93
2022/07/20 14:06:17;;;;;;;0.30;0.30;;;;;;;;;;6194615;23;20016;-92
2022/07/20 14:08:44;;;;;;;0.10;0.10;;;;;;;;;;6193984;23;20022;-92
2022/07/20 14:11:10;;;;;;;0.30;0.30;;;;;;;;;;6194570;23;20019;-93
2022/07/20 14:13:37;;;;;;;0.75;0.50;;;;;;;;;;6193853;23;20008;-93
2022/07/20 14:16:03;;;;;;;0.35;0.35;;;;;;;;;;6219261;23;20012;-92
2022/07/20 14:18:29;;;;;;;0.20;0.20;;;;;;;;;;6194122;23;20019;-94
2022/07/20 14:20:55;;;;;;;0.55;0.55;;;;;;;;;;6193920;23;20008;-93
2022/07/20 14:23:21;;;;;;;0.15;0.15;;;;;;;;;;6194089;23;20208;-93
2022/07/20 14:25:47;;;;;;;0.20;0.20;;;;;;;;;;6193346;23;20127;-92
2022/07/20 14:28:13;;;;;;;0.73;0.73;;;;;;;;;;6218542;22;20220;-92
2022/07/20 14:30:39;;;;;;;0.20;0.20;;;;;;;;;;6193546;23;20012;-92
2022/07/20 14:33:05;;;;;;;0.20;0.20;;;;;;;;;;6218747;23;20353;-93
2022/07/20 14:35:32;;;;;;;0.15;0.15;;;;;;;;;;6193630;23;20421;-93
2022/07/20 14:37:58;;;;;;;0.20;0.20;;;;;;;;;;6194009;22;20012;-92
2022/07/20 14:40:25;;;;;;;0.15;0.15;;;;;;;;;;6194069;23;20095;-93
2022/07/20 14:42:50;;;;;;;0.20;0.20;;;;;;;;;;6218776;23;20043;-91
2022/07/20 14:45:16;;;;;;;0.20;0.20;;;;;;;;;;6218641;23;20390;-92
2022/07/20 14:47:42;;;;;;;0.20;0.20;;;;;;;;;;6218712;23;20012;-91
2022/07/20 14:50:09;;;;;;;0.20;0.20;;;;;;;;;;6193270;23;20077;-91
2022/07/20 14:52:37;;;;;;;0.20;0.20;;;;;;;;;;6193563;23;20008;-90
2022/07/20 14:55:03;;;;;;;0.20;0.20;;;;;;;;;;6219518;23;20019;-90
2022/07/20 14:57:29;;;;;;;0.20;0.20;;;;;;;;;;6218868;23;20119;-89
2022/07/20 14:59:57;;;;;;;0.20;0.20;;;;;;;;;;6219048;23;20016;-92
2022/07/20 15:02:23;;;;;;;0.20;0.20;;;;;;;;;;6194049;23;20016;-90
2022/07/20 15:04:49;;;;;;;0.20;0.20;;;;;;;;;;6218336;23;20095;-90
2022/07/20 15:07:15;;;;;;;0.20;0.20;;;;;;;;;;6193080;23;20012;-90
2022/07/20 15:09:41;;;;;;;0.20;0.20;;;;;;;;;;6218142;23;20095;-89
2022/07/20 15:12:07;;;;;;;0.20;0.20;;;;;;;;;;6218284;23;20091;-89
2022/07/20 15:14:34;;;;;;;0.30;0.30;;;;;;;;;;6193382;23;20327;-89
2022/07/20 15:17:00;;;;;;;0.20;0.20;;;;;;;;;;6217776;23;20012;-90
2022/07/20 15:19:26;;;;;;;0.20;0.20;;;;;;;;;;6216187;23;20341;-90
2022/07/20 15:21:53;;;;;;;0.20;0.20;;;;;;;;;;6193003;23;20016;-90
2022/07/20 15:24:19;;;;;;;0.17;0.17;;;;;;;;;;6192999;23;20017;-90